Rockaway, Oregon
Current Conditions -  °F | °C
As of 12:55 PM on Friday 19 Dec 2014 (Local Time) from KTMK Reporting Station
Scattered Clouds Scattered Clouds  
Wind Chill: 52°   Ceiling: Unl
Heat Index: 52°   Visibility: 10mi
Dew Point: 45°   Wind: 8mph
Humidity: 76%   Direction: 180°S
Pressure: 29.99"   Gusts: NA
Location:  45.6132°N, 123.654°W
Report Text: KTMK 192055Z AUTO 18007KT 10SM SCT034 SCT055 SCT080 11/07 A2999 RMK AO2
Loading
Personal Weather Stations






























Interactive Weather Map New forecast layout! Learn more

10-Day Weather Forecast

Advertisements
Track Severe Weather on mobile